Time;durP1;ratioP1;P1;durP2;ratioP2;P2;SDS_P1;SDS_P2;PMS_P1;PMS_P2;Temp;Humidity;BMP_temperature;BMP_pressure;BME280_temperature;BME280_humidity;BME280_pressure;Samples;Min_cycle;Max_cycle;Signal;HPM_P1;HPM_P2
2022/11/03 00:01:37;;;;;;;0.98;0.98;;;4.60;1.00;;;;;;5067652;28;20431;-65
2022/11/03 00:04:08;;;;;;;5.35;1.08;;;4.40;1.00;;;;;;5061597;28;20437;-65
2022/11/03 00:06:35;;;;;;;6.38;1.33;;;4.30;1.00;;;;;;5056654;28;20435;-65
2022/11/03 00:09:05;;;;;;;1.52;0.70;;;4.20;1.00;;;;;;5054505;28;20424;-65
2022/11/03 00:11:36;;;;;;;1.70;0.70;;;4.10;1.00;;;;;;5074628;28;20431;-65
2022/11/03 00:14:04;;;;;;;1.10;0.60;;;4.10;1.00;;;;;;5055263;28;20437;-65
2022/11/03 00:16:31;;;;;;;2.30;1.02;;;4.00;1.00;;;;;;5064004;28;20433;-65
2022/11/03 00:18:58;;;;;;;2.70;0.90;;;4.10;1.00;;;;;;5056462;28;20440;-65
2022/11/03 00:21:24;;;;;;;1.80;1.20;;;4.10;1.00;;;;;;5059975;28;20437;-65
2022/11/03 00:23:51;;;;;;;1.57;0.97;;;4.10;1.00;;;;;;5066492;28;20753;-65
2022/11/03 00:26:21;;;;;;;7.32;2.05;;;4.10;1.00;;;;;;5051854;28;20437;-65
2022/11/03 00:29:14;;;;;;;0.80;0.63;;;4.10;1.00;;;;;;5063138;28;20423;-65
2022/11/03 00:31:43;;;;;;;2.90;1.10;;;4.10;1.00;;;;;;5056310;28;20439;-65
2022/11/03 00:34:10;;;;;;;1.50;0.80;;;4.00;1.00;;;;;;5060347;28;20427;-66
2022/11/03 00:36:39;;;;;;;1.00;0.70;;;4.00;1.00;;;;;;5060114;28;20514;-65
2022/11/03 00:39:07;;;;;;;3.70;0.63;;;3.90;1.00;;;;;;5058717;28;20561;-65
2022/11/03 00:41:34;;;;;;;0.93;0.73;;;3.90;1.00;;;;;;5056822;28;20446;-65
2022/11/03 00:44:01;;;;;;;1.42;1.13;;;3.90;1.00;;;;;;5063047;28;20427;-65
2022/11/03 00:46:29;;;;;;;0.88;0.82;;;3.90;1.00;;;;;;5054878;28;20499;-65
2022/11/03 00:48:56;;;;;;;0.63;0.50;;;3.90;1.00;;;;;;5062432;28;20423;-66
2022/11/03 00:51:23;;;;;;;0.50;0.50;;;3.80;1.00;;;;;;5059303;28;20436;-65
2022/11/03 00:53:56;;;;;;;0.60;0.60;;;3.70;1.00;;;;;;5065333;28;20679;-66
2022/11/03 00:56:39;;;;;;;1.08;0.63;;;3.70;1.00;;;;;;5066939;28;20580;-65
2022/11/03 00:59:07;;;;;;;0.63;0.63;;;3.60;1.00;;;;;;5061337;28;20423;-65
2022/11/03 01:01:43;;;;;;;1.47;0.47;;;3.60;1.00;;;;;;5062096;28;20506;-65
2022/11/03 01:07:03;;;;;;;0.50;0.50;;;3.60;1.00;;;;;;5063552;28;20436;-65
2022/11/03 01:09:39;;;;;;;0.97;0.97;;;3.70;1.00;;;;;;5056982;28;20427;-65
2022/11/03 01:12:13;;;;;;;0.80;0.73;;;3.70;1.00;;;;;;5065748;28;20431;-65
2022/11/03 01:14:48;;;;;;;0.70;0.70;;;3.70;1.00;;;;;;5058851;28;20840;-65
2022/11/03 01:17:18;;;;;;;0.40;0.40;;;3.60;1.00;;;;;;5059581;28;20882;-65
2022/11/03 01:19:45;;;;;;;2.50;1.27;;;3.50;1.00;;;;;;5068007;28;20431;-65
2022/11/03 01:22:13;;;;;;;0.40;0.40;;;3.40;1.00;;;;;;5068906;28;20427;-65
2022/11/03 01:24:41;;;;;;;0.50;0.40;;;3.40;1.00;;;;;;5056592;28;20425;-65
2022/11/03 01:27:14;;;;;;;1.88;0.60;;;3.40;8.90;;;;;;5054964;28;20437;-65
2022/11/03 01:29:41;;;;;;;3.95;0.82;;;3.50;10.00;;;;;;5067822;28;20447;-65
2022/11/03 01:32:08;;;;;;;1.90;0.68;;;3.50;12.30;;;;;;5050007;28;21028;-65
2022/11/03 01:34:36;;;;;;;0.80;0.50;;;3.50;12.20;;;;;;5061016;28;20432;-65
2022/11/03 01:37:03;;;;;;;1.60;0.50;;;3.50;19.70;;;;;;5066642;28;20471;-65
2022/11/03 01:39:32;;;;;;;2.67;1.02;;;3.60;30.00;;;;;;5069583;28;20439;-66
2022/11/03 01:41:59;;;;;;;5.18;0.55;;;3.60;39.70;;;;;;5058401;28;20455;-65
2022/11/03 01:44:29;;;;;;;0.40;0.40;;;3.80;54.00;;;;;;5056883;28;20968;-65
2022/11/03 01:47:06;;;;;;;0.43;0.43;;;3.90;58.30;;;;;;5053122;28;20447;-65
2022/11/03 01:49:53;;;;;;;1.00;0.68;;;3.80;49.90;;;;;;5064652;28;20441;-65
2022/11/03 01:52:22;;;;;;;0.52;0.52;;;3.70;43.40;;;;;;5057401;28;20435;-65
2022/11/03 01:55:01;;;;;;;5.50;0.90;;;3.70;44.10;;;;;;5063977;28;20480;-66
2022/11/03 01:57:47;;;;;;;0.50;0.50;;;3.60;37.60;;;;;;5054776;28;20488;-65
2022/11/03 02:00:14;;;;;;;1.33;0.70;;;3.50;32.80;;;;;;5063051;28;20479;-65
2022/11/03 02:02:42;;;;;;;1.77;0.80;;;3.50;36.00;;;;;;5059505;28;20432;-65
2022/11/03 02:05:13;;;;;;;1.65;0.80;;;3.60;40.00;;;;;;5056521;28;20940;-65
2022/11/03 02:07:46;;;;;;;2.60;0.60;;;3.50;37.90;;;;;;5068171;28;20436;-65
2022/11/03 02:10:13;;;;;;;2.90;0.98;;;3.40;34.70;;;;;;5063434;28;20423;-65
2022/11/03 02:12:41;;;;;;;0.40;0.40;;;3.40;33.10;;;;;;5058771;28;20906;-66
2022/11/03 02:15:11;;;;;;;0.57;0.40;;;3.40;35.50;;;;;;5065961;28;20898;-65
2022/11/03 02:17:39;;;;;;;0.43;0.43;;;3.40;32.80;;;;;;5054233;28;20929;-65
2022/11/03 02:20:10;;;;;;;4.85;0.47;;;3.40;27.60;;;;;;5055072;28;20888;-65
2022/11/03 02:23:01;;;;;;;1.20;0.70;;;3.40;26.40;;;;;;5066154;28;20434;-65
2022/11/03 02:25:49;;;;;;;6.05;1.20;;;3.40;31.20;;;;;;5063004;28;20471;-65
2022/11/03 02:28:19;;;;;;;1.40;0.60;;;3.40;48.60;;;;;;5075208;28;21031;-66
2022/11/03 02:31:20;;;;;;;0.70;0.70;;;3.60;62.60;;;;;;5063549;28;20491;-65
2022/11/03 02:33:54;;;;;;;0.60;0.60;;;3.60;59.20;;;;;;5067667;28;20432;-66
2022/11/03 02:36:28;;;;;;;0.20;0.20;;;3.50;49.30;;;;;;5061132;28;20427;-65
2022/11/03 02:39:28;;;;;;;1.10;0.50;;;3.60;49.60;;;;;;5064866;28;20435;-65
2022/11/03 02:41:58;;;;;;;0.70;0.70;;;3.60;54.20;;;;;;5055071;28;20456;-66
2022/11/03 02:44:26;;;;;;;0.77;0.40;;;3.60;52.40;;;;;;5053179;28;20437;-65
2022/11/03 02:47:02;;;;;;;0.85;0.45;;;3.40;44.60;;;;;;5057122;28;21040;-65
2022/11/03 02:49:29;;;;;;;2.30;0.55;;;3.30;36.90;;;;;;5060770;28;20498;-65
2022/11/03 02:52:04;;;;;;;2.00;0.60;;;3.20;38.90;;;;;;5056622;28;20434;-66
2022/11/03 02:54:41;;;;;;;0.68;0.68;;;3.20;39.30;;;;;;5064126;28;20439;-65
2022/11/03 02:57:31;;;;;;;0.82;0.82;;;3.10;40.60;;;;;;5061428;28;20440;-65
2022/11/03 03:00:06;;;;;;;1.02;0.88;;;3.10;59.70;;;;;;5052338;28;20433;-65
2022/11/03 03:02:44;;;;;;;1.48;0.65;;;3.10;67.00;;;;;;5066129;28;20428;-65
2022/11/03 03:05:14;;;;;;;0.60;0.60;;;3.10;65.90;;;;;;5053145;28;20436;-65
2022/11/03 03:07:46;;;;;;;0.50;0.50;;;3.00;58.80;;;;;;5066011;28;20454;-65
2022/11/03 03:10:20;;;;;;;0.60;0.60;;;2.90;58.80;;;;;;5065268;28;20433;-65
2022/11/03 03:12:51;;;;;;;0.90;0.60;;;2.90;64.80;;;;;;5058176;28;20436;-65
2022/11/03 03:15:35;;;;;;;1.50;0.77;;;3.00;75.40;;;;;;5063584;28;20435;-65
2022/11/03 03:18:23;;;;;;;1.13;0.70;;;3.00;76.40;;;;;;5059891;28;20433;-65
2022/11/03 03:21:00;;;;;;;2.50;0.75;;;2.90;73.00;;;;;;5054409;28;20426;-65
2022/11/03 03:23:32;;;;;;;1.42;0.55;;;2.90;72.50;;;;;;5052406;28;20440;-65
2022/11/03 03:26:02;;;;;;;0.80;0.75;;;3.10;85.10;;;;;;5062608;28;20473;-65
2022/11/03 03:28:48;;;;;;;0.80;0.80;;;3.00;84.20;;;;;;5068003;28;20488;-65
2022/11/03 03:31:18;;;;;;;0.90;0.80;;;3.00;81.00;;;;;;5064161;28;20424;-65
2022/11/03 03:33:49;;;;;;;1.10;0.63;;;3.00;76.80;;;;;;5056202;28;21275;-65
2022/11/03 03:36:22;;;;;;;0.90;0.90;;;2.90;70.50;;;;;;5053754;28;20438;-65
2022/11/03 03:38:55;;;;;;;2.60;0.40;;;2.90;76.70;;;;;;5061153;28;20442;-65
2022/11/03 03:41:25;;;;;;;1.23;0.80;;;2.80;84.50;;;;;;5060225;28;20427;-65
2022/11/03 03:43:56;;;;;;;0.60;0.60;;;2.80;86.20;;;;;;5048017;28;20432;-65
2022/11/03 03:46:26;;;;;;;1.43;1.17;;;2.80;91.70;;;;;;5063918;28;20776;-65
2022/11/03 03:48:53;;;;;;;0.50;0.50;;;2.90;95.30;;;;;;5081457;28;20841;-65
2022/11/03 03:51:24;;;;;;;0.97;0.63;;;3.00;96.40;;;;;;5058179;28;20456;-65
2022/11/03 03:53:52;;;;;;;1.23;0.52;;;3.00;94.80;;;;;;5063791;28;20431;-66
2022/11/03 03:56:50;;;;;;;1.60;0.63;;;3.00;95.80;;;;;;5063333;28;20439;-65
2022/11/03 03:59:17;;;;;;;0.40;0.40;;;3.00;98.80;;;;;;5057578;28;20431;-65
2022/11/03 04:01:43;;;;;;;0.40;0.40;;;3.00;99.90;;;;;;5062743;28;20436;-66
2022/11/03 04:04:10;;;;;;;0.80;0.80;;;3.10;99.90;;;;;;5065720;28;20581;-65
2022/11/03 04:06:37;;;;;;;1.20;0.80;;;3.10;99.90;;;;;;5063840;28;20435;-66
2022/11/03 04:09:04;;;;;;;0.60;0.60;;;3.00;99.90;;;;;;5059880;28;20428;-65
2022/11/03 04:22:34;;;;;;;0.55;0.55;;;3.00;99.90;;;;;;5061128;28;20430;-65
2022/11/03 04:25:01;;;;;;;4.43;0.70;;;2.90;99.90;;;;;;5061405;28;20436;-65
2022/11/03 04:27:33;;;;;;;0.60;0.60;;;2.90;99.90;;;;;;5066478;28;20798;-65
2022/11/03 04:30:18;;;;;;;5.10;0.60;;;2.90;99.90;;;;;;5075415;28;20429;-65
2022/11/03 04:32:47;;;;;;;0.50;0.50;;;2.90;99.90;;;;;;5065674;28;20421;-65
2022/11/03 04:35:27;;;;;;;0.63;0.63;;;2.80;99.90;;;;;;5062870;28;20425;-66
2022/11/03 04:38:07;;;;;;;2.40;0.60;;;2.70;99.90;;;;;;5064674;28;20431;-65
2022/11/03 04:40:34;;;;;;;0.40;0.40;;;2.70;99.90;;;;;;5063883;28;20435;-65
2022/11/03 04:43:09;;;;;;;0.43;0.43;;;2.60;99.00;;;;;;5065414;28;20807;-65
2022/11/03 04:45:37;;;;;;;0.52;0.52;;;2.60;98.80;;;;;;5063792;28;20423;-65
2022/11/03 04:48:19;;;;;;;0.40;0.40;;;2.70;99.90;;;;;;5063336;28;20506;-65
2022/11/03 04:50:48;;;;;;;0.40;0.40;;;2.60;99.90;;;;;;5064179;28;20437;-65
2022/11/03 04:53:17;;;;;;;0.40;0.40;;;2.60;99.90;;;;;;5064095;28;20435;-65
2022/11/03 04:55:45;;;;;;;5.28;0.68;;;2.50;99.90;;;;;;5069625;28;20544;-65
2022/11/03 04:58:18;;;;;;;4.13;0.77;;;2.50;99.90;;;;;;5068379;28;20426;-65
2022/11/03 05:00:44;;;;;;;0.50;0.50;;;2.40;98.50;;;;;;5062195;28;20959;-65
2022/11/03 05:03:21;;;;;;;1.70;0.65;;;2.40;99.90;;;;;;5066737;28;20439;-65
2022/11/03 05:05:48;;;;;;;0.45;0.45;;;2.40;99.90;;;;;;5067766;28;20434;-65
2022/11/03 05:08:20;;;;;;;0.50;0.50;;;2.30;98.10;;;;;;5066055;28;20428;-65
2022/11/03 05:10:48;;;;;;;1.00;0.50;;;2.20;98.30;;;;;;5068558;28;20432;-65
2022/11/03 05:13:26;;;;;;;1.00;0.70;;;2.20;99.90;;;;;;5068691;28;20431;-65
2022/11/03 05:16:02;;;;;;;9.27;0.77;;;2.20;99.90;;;;;;5066404;28;20458;-65
2022/11/03 05:18:36;;;;;;;0.80;0.80;;;2.20;99.90;;;;;;5068105;28;20458;-65
2022/11/03 05:21:16;;;;;;;0.35;0.35;;;2.20;99.90;;;;;;5064259;28;20510;-65
2022/11/03 05:23:50;;;;;;;1.40;0.55;;;2.20;99.90;;;;;;5054623;28;20471;-65
2022/11/03 05:26:21;;;;;;;1.30;0.73;;;2.20;99.90;;;;;;5069020;28;20435;-65
2022/11/03 05:28:54;;;;;;;1.45;1.35;;;2.10;99.90;;;;;;5062272;28;20433;-65
2022/11/03 05:31:29;;;;;;;0.85;0.85;;;2.20;99.90;;;;;;5067942;28;20433;-65
2022/11/03 05:34:17;;;;;;;1.20;0.30;;;2.20;99.90;;;;;;5055177;28;20462;-65
2022/11/03 05:36:43;;;;;;;0.80;0.80;;;2.30;99.90;;;;;;5071087;28;20431;-65
2022/11/03 05:39:27;;;;;;;2.47;1.50;;;2.20;99.90;;;;;;5058450;28;20918;-65
2022/11/03 05:41:55;;;;;;;1.05;0.98;;;2.20;99.90;;;;;;5069870;28;20428;-65
2022/11/03 05:44:36;;;;;;;1.20;1.10;;;2.20;99.90;;;;;;5061063;28;20437;-65
2022/11/03 05:47:21;;;;;;;0.60;0.60;;;2.10;99.90;;;;;;5068087;28;20513;-65
2022/11/03 05:49:51;;;;;;;2.58;2.38;;;2.00;99.90;;;;;;5051483;28;20429;-65
2022/11/03 05:52:25;;;;;;;2.08;1.88;;;1.90;99.90;;;;;;5066071;28;20423;-65
2022/11/03 05:54:56;;;;;;;1.27;0.50;;;1.80;99.90;;;;;;5068165;28;20473;-65
2022/11/03 05:57:24;;;;;;;0.70;0.50;;;1.80;99.90;;;;;;5065008;28;20824;-65
2022/11/03 05:59:52;;;;;;;0.75;0.75;;;1.80;99.90;;;;;;5051449;28;20440;-65
2022/11/03 06:02:40;;;;;;;0.63;0.63;;;1.90;99.90;;;;;;5067376;28;20925;-65
2022/11/03 06:05:21;;;;;;;0.70;0.70;;;1.90;99.90;;;;;;5075363;28;20438;-65
2022/11/03 06:07:49;;;;;;;0.47;0.47;;;2.00;99.90;;;;;;5060460;28;20487;-65
2022/11/03 06:10:40;;;;;;;1.17;0.70;;;2.20;99.90;;;;;;5054245;28;20425;-65
2022/11/03 06:13:23;;;;;;;0.80;0.43;;;2.20;99.90;;;;;;5054245;28;20433;-65
2022/11/03 06:15:55;;;;;;;0.45;0.45;;;2.20;99.90;;;;;;5064726;28;20432;-66
2022/11/03 06:18:28;;;;;;;2.30;0.95;;;2.20;99.90;;;;;;5054951;28;20925;-66
2022/11/03 06:21:06;;;;;;;0.80;0.80;;;2.20;99.90;;;;;;5061550;28;21456;-66
2022/11/03 06:23:35;;;;;;;0.70;0.70;;;2.30;99.90;;;;;;5054131;28;20485;-65
2022/11/03 06:26:02;;;;;;;1.40;0.40;;;2.20;99.90;;;;;;5063506;28;20437;-65
2022/11/03 06:28:35;;;;;;;0.73;0.73;;;2.30;99.90;;;;;;5061227;28;20827;-65
2022/11/03 06:31:16;;;;;;;0.60;0.60;;;2.30;99.90;;;;;;5053051;28;20457;-66
2022/11/03 06:33:50;;;;;;;1.50;0.77;;;2.40;99.90;;;;;;5056819;28;20442;-65
2022/11/03 06:36:34;;;;;;;0.93;0.93;;;2.50;99.90;;;;;;5055990;28;20934;-65
2022/11/03 06:39:20;;;;;;;1.52;0.98;;;2.60;99.90;;;;;;5055596;28;21262;-65
2022/11/03 06:41:47;;;;;;;0.87;0.87;;;2.60;99.90;;;;;;5054488;28;20976;-65
2022/11/03 06:44:23;;;;;;;1.25;1.15;;;2.70;99.90;;;;;;5051953;28;20424;-66
2022/11/03 06:47:00;;;;;;;1.10;1.00;;;2.70;99.90;;;;;;5064031;28;20483;-65
2022/11/03 06:49:28;;;;;;;0.45;0.45;;;2.80;99.90;;;;;;5061801;28;20428;-65
2022/11/03 06:51:58;;;;;;;1.02;1.00;;;3.00;99.90;;;;;;5057176;28;20428;-66
2022/11/03 06:54:24;;;;;;;1.17;1.17;;;3.10;99.90;;;;;;5057761;28;20502;-65
2022/11/03 06:56:51;;;;;;;1.60;0.68;;;3.20;99.90;;;;;;5055862;28;20448;-65
2022/11/03 06:59:18;;;;;;;1.67;1.00;;;3.40;99.90;;;;;;5052054;28;20439;-66
2022/11/03 07:01:51;;;;;;;1.00;0.80;;;3.60;99.90;;;;;;5062440;28;21139;-65
2022/11/03 07:04:21;;;;;;;7.25;0.95;;;3.70;99.90;;;;;;5061049;28;20437;-65
2022/11/03 07:06:49;;;;;;;4.20;1.10;;;3.90;99.90;;;;;;5054083;28;20522;-66
2022/11/03 07:09:22;;;;;;;1.10;0.70;;;4.10;99.90;;;;;;5063328;28;20959;-65
2022/11/03 07:11:52;;;;;;;0.50;0.50;;;4.40;99.90;;;;;;5060927;28;20427;-65
2022/11/03 07:14:21;;;;;;;1.67;1.20;;;4.60;99.90;;;;;;5050806;28;20445;-65
2022/11/03 07:16:55;;;;;;;0.90;0.90;;;4.80;99.90;;;;;;5065055;28;20423;-66
2022/11/03 07:19:25;;;;;;;1.13;1.02;;;5.00;99.90;;;;;;5061860;28;20439;-66
2022/11/03 07:21:55;;;;;;;6.47;1.33;;;5.40;99.90;;;;;;5058296;28;20825;-65
2022/11/03 07:24:29;;;;;;;1.33;1.27;;;5.70;99.90;;;;;;5053123;28;20421;-65
2022/11/03 07:27:01;;;;;;;1.60;1.50;;;5.80;99.90;;;;;;5050564;28;20506;-65
2022/11/03 07:29:29;;;;;;;1.20;0.97;;;6.00;99.90;;;;;;5054716;28;20432;-65
2022/11/03 07:31:58;;;;;;;1.27;0.95;;;6.10;99.90;;;;;;5049912;28;20472;-66
2022/11/03 07:34:31;;;;;;;2.60;0.90;;;6.10;99.90;;;;;;5055188;28;21500;-66
2022/11/03 07:36:58;;;;;;;0.70;0.70;;;6.10;99.90;;;;;;5075527;28;20487;-65
2022/11/03 07:39:37;;;;;;;0.57;0.57;;;6.20;99.90;;;;;;5066699;28;20515;-66
2022/11/03 07:42:33;;;;;;;0.70;0.70;;;6.40;99.90;;;;;;5063862;28;20423;-65
2022/11/03 07:45:32;;;;;;;0.77;0.77;;;6.60;99.90;;;;;;5039933;28;20433;-66
2022/11/03 07:48:10;;;;;;;1.30;1.13;;;6.80;99.90;;;;;;5044943;28;20508;-66
2022/11/03 07:50:37;;;;;;;2.60;1.02;;;7.00;99.90;;;;;;5044814;28;20421;-66
2022/11/03 07:53:18;;;;;;;0.70;0.70;;;7.30;99.90;;;;;;5029173;28;20424;-66
2022/11/03 07:55:53;;;;;;;1.17;1.08;;;7.50;99.90;;;;;;5041191;28;21014;-66
2022/11/03 07:58:34;;;;;;;0.90;0.90;;;7.60;99.90;;;;;;5041468;28;20428;-66
2022/11/03 08:01:31;;;;;;;1.30;1.00;;;7.60;99.90;;;;;;5026304;28;20436;-66
2022/11/03 08:04:03;;;;;;;0.77;0.77;;;7.90;99.90;;;;;;5046137;28;20433;-66
2022/11/03 08:06:30;;;;;;;1.20;1.10;;;8.30;99.90;;;;;;5041885;28;20473;-66
2022/11/03 08:08:57;;;;;;;0.60;0.60;;;8.40;99.90;;;;;;5047448;28;20424;-66
2022/11/03 08:11:24;;;;;;;1.40;0.87;;;8.60;99.90;;;;;;5044976;28;20499;-66
2022/11/03 08:13:56;;;;;;;0.63;0.63;;;8.70;99.90;;;;;;5044056;28;21216;-66
2022/11/03 08:16:22;;;;;;;1.27;1.03;;;8.90;99.90;;;;;;5029757;28;21040;-66
2022/11/03 08:18:49;;;;;;;1.00;0.70;;;9.00;99.90;;;;;;5046679;28;20433;-66
2022/11/03 08:21:16;;;;;;;0.77;0.77;;;8.90;99.90;;;;;;5049439;28;20427;-66
2022/11/03 08:23:43;;;;;;;1.70;1.20;;;8.90;99.90;;;;;;5053835;28;20949;-66
2022/11/03 08:26:13;;;;;;;1.20;1.10;;;8.90;99.90;;;;;;5056949;28;20796;-65
2022/11/03 08:28:43;;;;;;;1.35;0.88;;;9.20;99.90;;;;;;5053777;28;20792;-66
2022/11/03 08:31:09;;;;;;;0.85;0.85;;;9.30;99.90;;;;;;5063618;28;20431;-66
2022/11/03 08:33:39;;;;;;;1.40;1.00;;;9.50;92.10;;;;;;5055296;28;20427;-65
2022/11/03 08:36:08;;;;;;;1.45;1.17;;;9.80;1.00;;;;;;5056329;28;20443;-65
2022/11/03 08:38:36;;;;;;;1.17;1.02;;;9.90;1.00;;;;;;5057874;28;20870;-65
2022/11/03 08:41:02;;;;;;;2.35;1.80;;;10.20;99.90;;;;;;5061736;28;20434;-65
2022/11/03 08:43:29;;;;;;;3.60;1.88;;;10.50;1.00;;;;;;5067639;28;20440;-65
2022/11/03 08:45:56;;;;;;;1.88;1.17;;;10.90;99.90;;;;;;5053406;28;20433;-66
2022/11/03 08:48:38;;;;;;;0.90;0.90;;;11.30;1.00;;;;;;5063003;28;20776;-66
2022/11/03 08:51:07;;;;;;;1.77;1.00;;;11.50;30.30;;;;;;5060449;28;20427;-66
2022/11/03 08:53:34;;;;;;;1.15;1.08;;;11.60;1.00;;;;;;5062030;28;20529;-65
2022/11/03 08:56:00;;;;;;;1.20;1.00;;;11.70;1.00;;;;;;5063926;28;20419;-65
2022/11/03 08:58:27;;;;;;;1.40;1.20;;;11.90;1.00;;;;;;5056930;28;20530;-65
2022/11/03 09:00:54;;;;;;;1.48;0.88;;;12.10;1.00;;;;;;5060263;28;20427;-65
2022/11/03 09:03:21;;;;;;;3.10;1.43;;;12.40;1.00;;;;;;5070580;28;20433;-65
2022/11/03 09:05:47;;;;;;;1.00;0.75;;;12.70;1.00;;;;;;5055940;28;20423;-66
2022/11/03 09:08:16;;;;;;;2.90;1.27;;;12.90;99.90;;;;;;5077041;28;20428;-66
2022/11/03 09:11:03;;;;;;;1.55;1.45;;;13.10;99.90;;;;;;5083231;28;20503;-66
2022/11/03 09:13:30;;;;;;;1.15;0.80;;;13.40;99.90;;;;;;5068809;28;20425;-66
2022/11/03 09:15:57;;;;;;;0.90;0.90;;;13.40;99.90;;;;;;5068690;28;20431;-66
2022/11/03 09:18:27;;;;;;;2.42;1.27;;;13.20;99.90;;;;;;5064981;28;20429;-65
2022/11/03 09:20:53;;;;;;;1.05;0.98;;;13.10;99.90;;;;;;5074781;28;20431;-66
2022/11/03 09:23:20;;;;;;;2.25;1.17;;;13.00;99.90;;;;;;5052470;28;20984;-66
2022/11/03 09:25:47;;;;;;;1.77;1.20;;;13.00;99.90;;;;;;5070447;28;20433;-66
2022/11/03 09:28:17;;;;;;;1.10;0.73;;;13.00;99.90;;;;;;5068078;28;20431;-65
2022/11/03 09:30:43;;;;;;;3.00;0.90;;;13.00;99.90;;;;;;5066632;28;20418;-66
2022/11/03 09:33:10;;;;;;;1.80;1.07;;;13.00;99.90;;;;;;5076397;28;20487;-66
2022/11/03 09:35:37;;;;;;;1.58;1.02;;;13.00;99.90;;;;;;5058539;28;20432;-66
2022/11/03 09:38:04;;;;;;;1.97;1.20;;;13.00;99.90;;;;;;5051837;28;20439;-65
2022/11/03 09:40:32;;;;;;;3.40;1.13;;;12.90;99.90;;;;;;5062448;28;20455;-65
2022/11/03 09:42:59;;;;;;;0.90;0.90;;;12.70;99.90;;;;;;5063020;28;20433;-65
2022/11/03 09:45:25;;;;;;;3.08;0.98;;;12.70;99.90;;;;;;5057205;28;20456;-65
2022/11/03 09:47:52;;;;;;;1.27;1.17;;;12.60;99.90;;;;;;5068106;28;20424;-66
2022/11/03 09:50:22;;;;;;;4.88;2.15;;;12.60;99.90;;;;;;5067461;28;20428;-66
2022/11/03 09:52:51;;;;;;;1.10;1.00;;;12.40;99.90;;;;;;5069462;28;20431;-65
2022/11/03 09:55:24;;;;;;;1.23;1.13;;;12.50;99.90;;;;;;5059590;28;20429;-67
2022/11/03 09:57:53;;;;;;;0.95;0.95;;;12.60;99.90;;;;;;5050733;28;21329;-66
2022/11/03 10:00:21;;;;;;;2.05;1.52;;;12.80;99.90;;;;;;5054731;28;20425;-66
2022/11/03 10:02:49;;;;;;;1.30;1.20;;;12.70;99.90;;;;;;5061938;28;20599;-66
2022/11/03 10:05:26;;;;;;;2.20;1.00;;;12.80;99.90;;;;;;5059281;28;20434;-66
2022/11/03 10:07:59;;;;;;;0.77;0.77;;;13.40;99.90;;;;;;5063713;28;20439;-66
2022/11/03 10:10:26;;;;;;;2.17;1.13;;;14.20;99.90;;;;;;5063102;28;20409;-67
2022/11/03 10:12:54;;;;;;;0.85;0.80;;;15.00;99.90;;;;;;5061381;28;20813;-66
2022/11/03 10:15:22;;;;;;;1.25;0.90;;;15.40;99.90;;;;;;5056587;28;20423;-64
2022/11/03 10:17:50;;;;;;;1.17;1.13;;;15.40;99.90;;;;;;5060163;28;20526;-64
2022/11/03 10:20:20;;;;;;;0.90;0.90;;;15.50;99.90;;;;;;5063640;28;20419;-64
2022/11/03 10:22:51;;;;;;;0.70;0.70;;;15.20;99.90;;;;;;5066682;28;20430;-65
2022/11/03 10:25:27;;;;;;;1.08;1.08;;;15.10;99.90;;;;;;5060981;28;20431;-65
2022/11/03 10:28:24;;;;;;;1.63;1.53;;;14.20;99.90;;;;;;5054703;28;20498;-65
2022/11/03 10:30:54;;;;;;;5.10;2.60;;;14.00;99.90;;;;;;5060090;28;20427;-64
2022/11/03 10:33:50;;;;;;;4.57;2.67;;;13.60;99.90;;;;;;5059922;28;20458;-64
2022/11/03 10:36:17;;;;;;;2.67;1.05;;;13.80;99.90;;;;;;5049385;28;20455;-64
2022/11/03 10:38:45;;;;;;;2.42;1.17;;;13.70;99.90;;;;;;5049302;28;20462;-64
2022/11/03 10:41:18;;;;;;;2.05;1.20;;;13.60;99.90;;;;;;5054310;28;20423;-64
2022/11/03 10:44:01;;;;;;;1.27;1.17;;;13.60;99.90;;;;;;5056605;28;20435;-64
2022/11/03 10:46:29;;;;;;;0.95;0.80;;;13.50;99.90;;;;;;5059445;28;20434;-64
2022/11/03 10:49:18;;;;;;;1.00;0.90;;;13.60;99.90;;;;;;5061704;28;20481;-66
2022/11/03 10:51:48;;;;;;;2.30;1.30;;;13.40;99.90;;;;;;5057440;28;20423;-66
2022/11/03 10:54:17;;;;;;;1.00;0.90;;;13.40;99.90;;;;;;5064221;28;20444;-66
2022/11/03 10:56:45;;;;;;;1.40;1.00;;;13.20;99.90;;;;;;5056352;28;20812;-66
2022/11/03 10:59:30;;;;;;;1.75;1.20;;;13.20;99.90;;;;;;5050706;28;20490;-67
2022/11/03 11:01:58;;;;;;;1.90;1.13;;;13.20;99.90;;;;;;5065011;28;20442;-66
2022/11/03 11:04:25;;;;;;;1.10;1.02;;;13.00;99.90;;;;;;5057881;28;20803;-66
2022/11/03 11:06:52;;;;;;;1.45;0.95;;;12.80;99.90;;;;;;5059619;28;20431;-66
2022/11/03 11:09:26;;;;;;;2.00;1.38;;;12.60;99.90;;;;;;5053954;28;20843;-66
2022/11/03 11:12:05;;;;;;;2.20;1.23;;;12.60;99.90;;;;;;5071110;28;20431;-66
2022/11/03 11:14:57;;;;;;;2.72;1.80;;;12.50;99.90;;;;;;5060707;28;20427;-67
2022/11/03 11:17:44;;;;;;;0.82;0.82;;;12.40;99.90;;;;;;5061210;28;20440;-66
2022/11/03 11:20:17;;;;;;;0.88;0.88;;;12.30;99.90;;;;;;5062759;28;20492;-66
2022/11/03 11:22:48;;;;;;;3.10;1.00;;;12.40;99.90;;;;;;5061815;28;20431;-66
2022/11/03 11:25:16;;;;;;;1.50;1.27;;;12.50;99.90;;;;;;5062224;28;20439;-66
2022/11/03 11:27:43;;;;;;;3.30;1.30;;;12.70;99.90;;;;;;5058320;28;20428;-66
2022/11/03 11:30:19;;;;;;;1.05;0.95;;;12.80;99.90;;;;;;5058152;28;20431;-66
2022/11/03 11:32:48;;;;;;;1.77;1.38;;;12.90;99.90;;;;;;5056526;28;20979;-67
2022/11/03 11:35:37;;;;;;;0.87;0.87;;;12.90;99.90;;;;;;5057258;28;20463;-66
2022/11/03 11:38:46;;;;;;;1.35;1.17;;;12.60;99.90;;;;;;5073234;28;20477;-65
2022/11/03 11:41:12;;;;;;;3.80;1.45;;;12.50;99.90;;;;;;5040346;28;20457;-65
2022/11/03 11:43:39;;;;;;;1.50;1.40;;;12.40;99.90;;;;;;5054878;28;20516;-66
2022/11/03 11:46:21;;;;;;;3.60;1.60;;;12.50;99.90;;;;;;5056619;28;20444;-66
2022/11/03 11:48:56;;;;;;;0.98;0.90;;;12.60;99.90;;;;;;5057639;28;20439;-66
2022/11/03 11:51:23;;;;;;;0.98;0.98;;;12.40;99.90;;;;;;5059556;28;20422;-66
2022/11/03 11:53:50;;;;;;;1.30;1.30;;;12.60;99.90;;;;;;5057442;28;20432;-65
2022/11/03 11:56:46;;;;;;;1.10;1.08;;;12.50;99.90;;;;;;5058630;28;20439;-66
2022/11/03 11:59:19;;;;;;;0.97;0.97;;;12.40;99.90;;;;;;5063643;28;20427;-66
2022/11/03 12:01:55;;;;;;;1.00;1.00;;;12.30;99.90;;;;;;5058142;28;20476;-66
2022/11/03 12:04:26;;;;;;;2.20;1.10;;;12.20;99.90;;;;;;5058799;28;20436;-66
2022/11/03 12:06:54;;;;;;;0.98;0.98;;;12.30;99.90;;;;;;5056339;28;20580;-66
2022/11/03 12:09:23;;;;;;;4.85;1.55;;;12.20;99.90;;;;;;5065718;28;20430;-66
2022/11/03 12:11:58;;;;;;;2.43;1.50;;;12.30;99.90;;;;;;5060203;28;20442;-66
2022/11/03 12:14:38;;;;;;;2.80;1.40;;;12.40;99.90;;;;;;5053402;28;20428;-66
2022/11/03 12:17:23;;;;;;;3.05;1.45;;;12.30;99.90;;;;;;5064181;28;20481;-66
2022/11/03 12:19:51;;;;;;;1.43;1.20;;;12.40;99.90;;;;;;5053964;28;20431;-66
2022/11/03 12:22:24;;;;;;;0.98;0.98;;;12.40;99.90;;;;;;5060156;28;20438;-68
2022/11/03 12:24:53;;;;;;;1.02;0.98;;;12.40;99.90;;;;;;5053825;28;20427;-66
2022/11/03 12:27:26;;;;;;;4.63;2.58;;;12.40;99.90;;;;;;5056132;28;20872;-66
2022/11/03 12:29:58;;;;;;;5.80;2.63;;;12.50;99.90;;;;;;5052452;28;20434;-66
2022/11/03 12:32:27;;;;;;;1.35;1.10;;;12.50;99.90;;;;;;5051923;28;20432;-66
2022/11/03 12:35:06;;;;;;;2.70;2.40;;;12.50;99.90;;;;;;5061115;28;20432;-67
2022/11/03 12:37:33;;;;;;;1.57;1.47;;;12.70;99.90;;;;;;5062425;28;20505;-65
2022/11/03 12:40:00;;;;;;;7.07;1.08;;;12.70;99.90;;;;;;5061297;28;20435;-65
2022/11/03 12:42:28;;;;;;;1.23;1.13;;;12.60;99.90;;;;;;5066871;28;20446;-66
2022/11/03 12:44:54;;;;;;;3.90;2.33;;;12.70;99.90;;;;;;5073464;28;20964;-65
2022/11/03 12:47:21;;;;;;;3.60;2.20;;;12.60;99.90;;;;;;5060779;28;20561;-65
2022/11/03 12:49:48;;;;;;;1.52;1.35;;;12.70;99.90;;;;;;5054852;28;20903;-66
2022/11/03 12:52:15;;;;;;;1.00;0.95;;;12.80;99.90;;;;;;5055383;28;20804;-65
2022/11/03 12:54:42;;;;;;;1.58;0.90;;;12.90;99.90;;;;;;5065143;28;20434;-65
2022/11/03 12:57:09;;;;;;;3.35;1.63;;;13.00;99.90;;;;;;5066434;28;20434;-65
2022/11/03 12:59:35;;;;;;;2.10;1.45;;;12.90;99.90;;;;;;5053091;28;20485;-65
2022/11/03 13:02:03;;;;;;;1.30;1.20;;;13.00;99.90;;;;;;5060778;28;20431;-65
2022/11/03 13:04:37;;;;;;;3.83;2.07;;;13.10;99.90;;;;;;5060194;28;20432;-65
2022/11/03 13:07:04;;;;;;;2.20;0.90;;;13.10;99.90;;;;;;5065059;28;20798;-65
2022/11/03 13:09:31;;;;;;;2.90;1.13;;;13.00;99.90;;;;;;5064248;28;20437;-65
2022/11/03 13:14:45;;;;;;;2.45;1.40;;;12.80;99.90;;;;;;5050609;28;20480;-65
2022/11/03 13:17:14;;;;;;;3.10;1.00;;;12.70;99.90;;;;;;5063004;28;20442;-66
2022/11/03 13:19:41;;;;;;;0.90;0.90;;;12.60;99.90;;;;;;5057876;28;20436;-65
2022/11/03 13:22:10;;;;;;;1.85;1.10;;;12.40;99.90;;;;;;5062940;28;20436;-66
2022/11/03 13:24:37;;;;;;;1.00;1.00;;;12.30;99.90;;;;;;5065449;28;20485;-70
2022/11/03 13:27:04;;;;;;;1.55;0.93;;;12.30;99.90;;;;;;5056011;28;21334;-70
2022/11/03 13:29:30;;;;;;;1.10;1.10;;;12.30;99.90;;;;;;5065966;28;20458;-67
2022/11/03 13:32:02;;;;;;;1.08;1.08;;;12.30;99.90;;;;;;5076005;28;20424;-68
2022/11/03 13:34:29;;;;;;;1.33;0.98;;;12.10;99.90;;;;;;5060790;28;20439;-68
2022/11/03 13:36:57;;;;;;;1.08;0.95;;;12.00;99.90;;;;;;5060039;28;20447;-67
2022/11/03 13:39:24;;;;;;;0.88;0.88;;;11.90;99.90;;;;;;5054284;28;20436;-68